DWI4162 MDSD-MMSM
Flight info
| Callsign | DWI4162 |
|---|---|
| Flight time | 4h 3m |
| Altitude | 36000 |
| Route | ETBOD2J ETBOD UA890 PAP UL577 CZM UJ9 CZA UT20 UBVOV UT101 UMAVO UT169 VITOS VITOS2A |
| Aircraft | B38M/M-SDE1FGHILORVWXY/HB1 |
Departure
| Time | 2026-05-09 00:23 |
|---|---|
| Airport | Las Américas International Airport (MDSD) |
Arrival
| Time | 2026-05-09 04:26 |
|---|---|
| Airport | Felipe Ángeles International Airport (MMSM) |
| Time | Latitude | Longitude | Altitude | Speed | Heading |
|---|---|---|---|---|---|
| 2026-05-09 00:04 | 18.43112 | -69.67553 | 67 ft | 0 kts | 290° |
| 2026-05-09 00:14 | 18.43107 | -69.67534 | 63 ft | 4 kts | 271° |
| 2026-05-09 00:14 | 18.43113 | -69.67508 | 62 ft | 4 kts | 254° |
| 2026-05-09 00:14 | 18.43112 | -69.67490 | 62 ft | 4 kts | 287° |
| 2026-05-09 00:15 | 18.43108 | -69.67462 | 62 ft | 4 kts | 286° |
| 2026-05-09 00:15 | 18.43099 | -69.67452 | 60 ft | 4 kts | 341° |
| 2026-05-09 00:15 | 18.43087 | -69.67449 | 59 ft | 0 kts | 340° |
| 2026-05-09 00:18 | 18.43098 | -69.67453 | 58 ft | 8 kts | 339° |
| 2026-05-09 00:18 | 18.43205 | -69.67491 | 63 ft | 22 kts | 340° |
| 2026-05-09 00:18 | 18.43342 | -69.67541 | 68 ft | 18 kts | 344° |
| 2026-05-09 00:19 | 18.43448 | -69.67527 | 65 ft | 15 kts | 340° |
| 2026-05-09 00:19 | 18.43541 | -69.67566 | 70 ft | 15 kts | 339° |
| 2026-05-09 00:19 | 18.43640 | -69.67606 | 68 ft | 16 kts | 339° |
| 2026-05-09 00:19 | 18.43747 | -69.67648 | 69 ft | 17 kts | 340° |
| 2026-05-09 00:20 | 18.43859 | -69.67692 | 66 ft | 17 kts | 339° |
| 2026-05-09 00:20 | 18.43963 | -69.67735 | 69 ft | 15 kts | 339° |
| 2026-05-09 00:20 | 18.44062 | -69.67773 | 71 ft | 14 kts | 340° |
| 2026-05-09 00:20 | 18.44071 | -69.67777 | 68 ft | 12 kts | 340° |
| 2026-05-09 00:21 | 18.44115 | -69.67793 | 69 ft | 2 kts | 350° |
| 2026-05-09 00:21 | 18.44121 | -69.67788 | 61 ft | 3 kts | 47° |
| 2026-05-09 00:21 | 18.44146 | -69.67722 | 69 ft | 14 kts | 69° |
| 2026-05-09 00:21 | 18.44185 | -69.67617 | 65 ft | 16 kts | 69° |
| 2026-05-09 00:22 | 18.44175 | -69.67539 | 71 ft | 13 kts | 138° |
| 2026-05-09 00:22 | 18.43879 | -69.67422 | 72 ft | 84 kts | 162° |
| 2026-05-09 00:22 | 18.43108 | -69.67139 | 69 ft | 150 kts | 160° |
| 2026-05-09 00:22 | 18.41970 | -69.66732 | 239 ft | 181 kts | 160° |
| 2026-05-09 00:23 | 18.40764 | -69.66287 | 761 ft | 183 kts | 159° |
| 2026-05-09 00:23 | 18.39580 | -69.65830 | 1274 ft | 187 kts | 156° |
| 2026-05-09 00:23 | 18.38286 | -69.65331 | 1921 ft | 199 kts | 156° |
| 2026-05-09 00:23 | 18.36906 | -69.65014 | 2584 ft | 212 kts | 178° |
| 2026-05-09 00:24 | 18.35458 | -69.65435 | 3183 ft | 227 kts | 209° |
| 2026-05-09 00:24 | 18.34282 | -69.66652 | 3388 ft | 248 kts | 239° |
| 2026-05-09 00:24 | 18.33826 | -69.68393 | 3330 ft | 251 kts | 274° |
| 2026-05-09 00:24 | 18.34049 | -69.70221 | 3451 ft | 255 kts | 278° |
| 2026-05-09 00:25 | 18.34248 | -69.72074 | 3515 ft | 258 kts | 277° |
| 2026-05-09 00:25 | 18.34432 | -69.73996 | 3623 ft | 270 kts | 276° |
| 2026-05-09 00:25 | 18.34612 | -69.76005 | 3745 ft | 277 kts | 276° |
| 2026-05-09 00:25 | 18.34637 | -69.76285 | 3740 ft | 278 kts | 276° |
| 2026-05-09 00:26 | 18.34811 | -69.78303 | 3816 ft | 279 kts | 276° |
| 2026-05-09 00:26 | 18.34933 | -69.79712 | 3873 ft | 279 kts | 276° |
| 2026-05-09 00:26 | 18.34996 | -69.80452 | 3936 ft | 280 kts | 276° |
| 2026-05-09 00:26 | 18.35172 | -69.82496 | 4195 ft | 280 kts | 276° |
| 2026-05-09 00:27 | 18.35348 | -69.84542 | 4425 ft | 281 kts | 276° |
| 2026-05-09 00:27 | 18.35525 | -69.86598 | 4580 ft | 282 kts | 276° |
| 2026-05-09 00:27 | 18.35699 | -69.88657 | 4688 ft | 282 kts | 276° |
| 2026-05-09 00:27 | 18.35780 | -69.89604 | 4717 ft | 282 kts | 276° |
| 2026-05-09 00:28 | 18.35853 | -69.90457 | 4780 ft | 283 kts | 276° |
| 2026-05-09 00:28 | 18.36026 | -69.92514 | 4975 ft | 283 kts | 276° |
| 2026-05-09 00:28 | 18.36200 | -69.94557 | 5155 ft | 283 kts | 276° |
| 2026-05-09 00:28 | 18.36376 | -69.96625 | 5296 ft | 283 kts | 276° |
| 2026-05-09 00:29 | 18.36551 | -69.98699 | 5413 ft | 283 kts | 276° |
| 2026-05-09 00:29 | 18.36727 | -70.00774 | 5513 ft | 283 kts | 276° |
| 2026-05-09 00:29 | 18.36900 | -70.02829 | 5577 ft | 283 kts | 276° |
| 2026-05-09 00:29 | 18.37074 | -70.04883 | 5620 ft | 283 kts | 277° |
| 2026-05-09 00:30 | 18.37246 | -70.06986 | 6191 ft | 286 kts | 276° |
| 2026-05-09 00:30 | 18.37424 | -70.09068 | 7182 ft | 284 kts | 277° |
| 2026-05-09 00:30 | 18.37601 | -70.11151 | 7887 ft | 294 kts | 277° |
| 2026-05-09 00:30 | 18.37780 | -70.13347 | 8547 ft | 303 kts | 277° |
| 2026-05-09 00:31 | 18.37966 | -70.15560 | 9425 ft | 305 kts | 277° |
| 2026-05-09 00:31 | 18.38152 | -70.17790 | 10128 ft | 311 kts | 277° |
| 2026-05-09 00:31 | 18.38342 | -70.20081 | 10867 ft | 314 kts | 277° |
| 2026-05-09 00:31 | 18.38534 | -70.22370 | 11539 ft | 319 kts | 277° |
| 2026-05-09 00:32 | 18.38727 | -70.24708 | 12213 ft | 323 kts | 277° |
| 2026-05-09 00:32 | 18.38926 | -70.27118 | 12703 ft | 335 kts | 277° |
| 2026-05-09 00:32 | 18.39126 | -70.29611 | 12933 ft | 351 kts | 276° |
| 2026-05-09 00:32 | 18.39334 | -70.32240 | 13250 ft | 366 kts | 276° |
| 2026-05-09 00:33 | 18.39549 | -70.34922 | 13865 ft | 367 kts | 277° |
| 2026-05-09 00:33 | 18.39772 | -70.37604 | 14363 ft | 373 kts | 277° |
| 2026-05-09 00:33 | 18.39996 | -70.40344 | 14922 ft | 374 kts | 277° |
| 2026-05-09 00:33 | 18.40221 | -70.43057 | 15438 ft | 378 kts | 277° |
| 2026-05-09 00:34 | 18.40450 | -70.45840 | 15924 ft | 381 kts | 277° |
| 2026-05-09 00:34 | 18.40681 | -70.48643 | 16445 ft | 385 kts | 277° |
| 2026-05-09 00:34 | 18.40911 | -70.51463 | 16957 ft | 386 kts | 277° |
| 2026-05-09 00:34 | 18.41143 | -70.54269 | 17411 ft | 391 kts | 277° |
| 2026-05-09 00:35 | 18.41377 | -70.57140 | 17861 ft | 393 kts | 278° |
| 2026-05-09 00:35 | 18.41615 | -70.60030 | 18327 ft | 396 kts | 278° |
| 2026-05-09 00:35 | 18.41847 | -70.62901 | 18701 ft | 399 kts | 278° |
| 2026-05-09 00:35 | 18.42086 | -70.65839 | 19131 ft | 400 kts | 278° |
| 2026-05-09 00:36 | 18.42322 | -70.68747 | 19526 ft | 402 kts | 278° |
| 2026-05-09 00:36 | 18.42560 | -70.71692 | 19932 ft | 404 kts | 277° |
| 2026-05-09 00:36 | 18.42800 | -70.74648 | 20335 ft | 405 kts | 277° |
| 2026-05-09 00:36 | 18.43039 | -70.77599 | 20731 ft | 407 kts | 277° |
| 2026-05-09 00:37 | 18.43280 | -70.80584 | 21119 ft | 409 kts | 277° |
| 2026-05-09 00:37 | 18.43519 | -70.83562 | 21499 ft | 411 kts | 277° |
| 2026-05-09 00:37 | 18.43761 | -70.86574 | 21893 ft | 412 kts | 277° |
| 2026-05-09 00:37 | 18.44003 | -70.89598 | 22276 ft | 414 kts | 277° |
| 2026-05-09 00:38 | 18.44243 | -70.92595 | 22652 ft | 416 kts | 277° |
| 2026-05-09 00:38 | 18.44487 | -70.95647 | 23044 ft | 418 kts | 276° |
| 2026-05-09 00:38 | 18.44731 | -70.98702 | 23414 ft | 420 kts | 276° |
| 2026-05-09 00:38 | 18.44978 | -71.01798 | 23747 ft | 422 kts | 276° |
| 2026-05-09 00:39 | 18.45220 | -71.04852 | 24050 ft | 423 kts | 276° |
| 2026-05-09 00:39 | 18.45467 | -71.07969 | 24357 ft | 425 kts | 276° |
| 2026-05-09 00:39 | 18.45713 | -71.11076 | 24671 ft | 427 kts | 276° |
| 2026-05-09 00:39 | 18.45958 | -71.14176 | 24976 ft | 429 kts | 276° |
| 2026-05-09 00:40 | 18.46205 | -71.17319 | 25287 ft | 431 kts | 276° |
| 2026-05-09 00:40 | 18.46453 | -71.20476 | 25580 ft | 433 kts | 276° |
| 2026-05-09 00:40 | 18.46703 | -71.23657 | 25881 ft | 434 kts | 276° |
| 2026-05-09 00:41 | 18.47199 | -71.30004 | 26490 ft | 438 kts | 276° |
| 2026-05-09 00:41 | 18.47450 | -71.33219 | 26786 ft | 440 kts | 276° |
| 2026-05-09 00:41 | 18.47701 | -71.36444 | 27089 ft | 442 kts | 276° |
| 2026-05-09 00:41 | 18.47950 | -71.39648 | 27378 ft | 444 kts | 276° |
| 2026-05-09 00:42 | 18.48201 | -71.42902 | 27668 ft | 446 kts | 276° |
| 2026-05-09 00:42 | 18.48453 | -71.46149 | 27949 ft | 448 kts | 276° |
| 2026-05-09 00:42 | 18.48708 | -71.49452 | 28228 ft | 450 kts | 276° |
| 2026-05-09 00:42 | 18.48962 | -71.52746 | 28505 ft | 452 kts | 276° |
| 2026-05-09 00:43 | 18.49214 | -71.56031 | 28771 ft | 454 kts | 276° |
| 2026-05-09 00:43 | 18.49470 | -71.59363 | 29031 ft | 456 kts | 276° |
| 2026-05-09 00:43 | 18.49726 | -71.62719 | 29316 ft | 457 kts | 276° |
| 2026-05-09 00:43 | 18.49980 | -71.66039 | 29575 ft | 459 kts | 276° |
| 2026-05-09 00:44 | 18.50236 | -71.69407 | 29822 ft | 461 kts | 276° |
| 2026-05-09 00:44 | 18.50494 | -71.72799 | 30071 ft | 463 kts | 276° |
| 2026-05-09 00:44 | 18.50750 | -71.76187 | 30288 ft | 465 kts | 276° |
| 2026-05-09 00:44 | 18.51006 | -71.79563 | 30512 ft | 466 kts | 276° |
| 2026-05-09 00:45 | 18.51261 | -71.82937 | 30746 ft | 467 kts | 276° |
| 2026-05-09 00:45 | 18.51517 | -71.86350 | 30969 ft | 468 kts | 276° |
| 2026-05-09 00:45 | 18.51925 | -71.89765 | 31192 ft | 468 kts | 281° |
| 2026-05-09 00:45 | 18.52439 | -71.93165 | 31398 ft | 469 kts | 280° |
| 2026-05-09 00:46 | 18.52928 | -71.96540 | 31607 ft | 471 kts | 280° |
| 2026-05-09 00:46 | 18.53412 | -71.99969 | 31834 ft | 472 kts | 279° |
| 2026-05-09 00:46 | 18.53895 | -72.03417 | 32085 ft | 472 kts | 279° |
| 2026-05-09 00:46 | 18.54368 | -72.06810 | 32397 ft | 471 kts | 279° |
| 2026-05-09 00:47 | 18.54845 | -72.10234 | 32727 ft | 469 kts | 279° |
| 2026-05-09 00:47 | 18.55312 | -72.13589 | 33049 ft | 467 kts | 279° |
| 2026-05-09 00:47 | 18.55786 | -72.16998 | 33372 ft | 466 kts | 279° |
| 2026-05-09 00:47 | 18.56255 | -72.20372 | 33680 ft | 464 kts | 279° |
| 2026-05-09 00:48 | 18.56716 | -72.23707 | 33973 ft | 463 kts | 279° |
| 2026-05-09 00:48 | 18.57183 | -72.27078 | 34222 ft | 462 kts | 279° |
| 2026-05-09 00:48 | 18.57488 | -72.30451 | 34452 ft | 463 kts | 268° |
| 2026-05-09 00:48 | 18.57120 | -72.33782 | 34723 ft | 461 kts | 264° |
| 2026-05-09 00:49 | 18.56705 | -72.37140 | 34894 ft | 462 kts | 264° |
| 2026-05-09 00:49 | 18.56272 | -72.40509 | 35069 ft | 463 kts | 263° |
| 2026-05-09 00:49 | 18.55822 | -72.43877 | 35299 ft | 462 kts | 263° |
| 2026-05-09 00:49 | 18.55367 | -72.47232 | 35522 ft | 461 kts | 263° |
| 2026-05-09 00:50 | 18.54915 | -72.50549 | 35730 ft | 461 kts | 263° |
| 2026-05-09 00:50 | 18.54456 | -72.53906 | 35921 ft | 461 kts | 263° |
| 2026-05-09 00:50 | 18.53544 | -72.60563 | 35960 ft | 459 kts | 263° |
| 2026-05-09 00:51 | 18.52632 | -72.67197 | 35977 ft | 459 kts | 263° |
| 2026-05-09 00:51 | 18.51718 | -72.73837 | 35977 ft | 459 kts | 263° |
| 2026-05-09 00:52 | 18.50797 | -72.80504 | 35989 ft | 459 kts | 263° |
| 2026-05-09 00:52 | 18.49877 | -72.87156 | 35997 ft | 459 kts | 263° |
| 2026-05-09 00:53 | 18.48974 | -72.93796 | 36005 ft | 459 kts | 263° |
| 2026-05-09 00:53 | 18.48078 | -73.00460 | 36009 ft | 459 kts | 263° |
| 2026-05-09 00:54 | 18.47182 | -73.07100 | 36008 ft | 459 kts | 263° |
| 2026-05-09 00:54 | 18.46283 | -73.13743 | 36010 ft | 459 kts | 263° |
| 2026-05-09 00:55 | 18.45377 | -73.20420 | 36011 ft | 459 kts | 263° |
| 2026-05-09 00:55 | 18.44474 | -73.27061 | 36009 ft | 459 kts | 263° |
| 2026-05-09 00:56 | 18.43569 | -73.33695 | 36012 ft | 459 kts | 263° |
| 2026-05-09 00:56 | 18.42660 | -73.40347 | 36015 ft | 459 kts | 263° |
| 2026-05-09 00:57 | 18.41753 | -73.46957 | 36016 ft | 459 kts | 263° |
| 2026-05-09 00:57 | 18.40834 | -73.53640 | 36015 ft | 459 kts | 263° |
| 2026-05-09 00:58 | 18.39920 | -73.60272 | 36015 ft | 459 kts | 263° |
| 2026-05-09 00:58 | 18.39001 | -73.66923 | 36018 ft | 459 kts | 263° |
| 2026-05-09 00:59 | 18.38238 | -73.72432 | 36019 ft | 459 kts | 263° |
| 2026-05-09 00:59 | 18.37161 | -73.80183 | 36018 ft | 459 kts | 263° |
| 2026-05-09 01:00 | 18.36385 | -73.85757 | 36021 ft | 459 kts | 263° |
| 2026-05-09 01:00 | 18.35460 | -73.92381 | 36024 ft | 459 kts | 263° |
| 2026-05-09 01:01 | 18.34533 | -73.99008 | 36020 ft | 459 kts | 263° |
| 2026-05-09 01:01 | 18.33602 | -74.05643 | 36018 ft | 459 kts | 263° |
| 2026-05-09 01:02 | 18.32669 | -74.12276 | 36016 ft | 459 kts | 263° |
| 2026-05-09 01:02 | 18.31727 | -74.18958 | 36015 ft | 459 kts | 263° |
| 2026-05-09 01:03 | 18.30792 | -74.25571 | 36014 ft | 459 kts | 263° |
| 2026-05-09 01:03 | 18.29846 | -74.32243 | 36011 ft | 459 kts | 263° |
| 2026-05-09 01:04 | 18.28906 | -74.38854 | 36005 ft | 459 kts | 263° |
| 2026-05-09 01:04 | 18.27964 | -74.45468 | 35999 ft | 458 kts | 263° |
| 2026-05-09 01:05 | 18.27013 | -74.52130 | 35996 ft | 458 kts | 263° |
| 2026-05-09 01:06 | 18.25596 | -74.62028 | 35994 ft | 458 kts | 263° |
| 2026-05-09 01:06 | 18.25563 | -74.68677 | 36004 ft | 453 kts | 282° |
| 2026-05-09 01:07 | 18.26678 | -74.75198 | 35997 ft | 455 kts | 281° |
| 2026-05-09 01:07 | 18.27855 | -74.81756 | 35993 ft | 455 kts | 282° |
| 2026-05-09 01:08 | 18.29042 | -74.88279 | 35995 ft | 455 kts | 282° |
| 2026-05-09 01:08 | 18.30230 | -74.94801 | 35991 ft | 455 kts | 282° |
| 2026-05-09 01:09 | 18.31413 | -75.01315 | 35991 ft | 455 kts | 282° |
| 2026-05-09 01:09 | 18.32602 | -75.07874 | 35993 ft | 454 kts | 282° |
| 2026-05-09 01:10 | 18.33781 | -75.14394 | 35991 ft | 455 kts | 282° |
| 2026-05-09 01:10 | 18.34963 | -75.20941 | 35991 ft | 455 kts | 282° |
| 2026-05-09 01:11 | 18.36137 | -75.27456 | 35988 ft | 455 kts | 282° |
| 2026-05-09 01:11 | 18.37317 | -75.34021 | 35989 ft | 455 kts | 282° |
| 2026-05-09 01:12 | 18.38493 | -75.40570 | 35992 ft | 455 kts | 282° |
| 2026-05-09 01:12 | 18.39659 | -75.47083 | 35990 ft | 455 kts | 282° |
| 2026-05-09 01:13 | 18.40832 | -75.53650 | 35991 ft | 455 kts | 282° |
| 2026-05-09 01:13 | 18.42004 | -75.60219 | 35991 ft | 455 kts | 282° |
| 2026-05-09 01:14 | 18.43166 | -75.66747 | 35993 ft | 455 kts | 282° |
| 2026-05-09 01:14 | 18.44327 | -75.73284 | 35991 ft | 455 kts | 282° |
| 2026-05-09 01:15 | 18.45495 | -75.79874 | 35990 ft | 456 kts | 282° |
| 2026-05-09 01:15 | 18.46652 | -75.86413 | 35989 ft | 455 kts | 282° |
| 2026-05-09 01:16 | 18.47810 | -75.92973 | 35989 ft | 456 kts | 281° |
| 2026-05-09 01:16 | 18.48970 | -75.99562 | 35986 ft | 456 kts | 282° |
| 2026-05-09 01:17 | 18.50684 | -76.09312 | 35980 ft | 456 kts | 281° |
| 2026-05-09 01:17 | 18.51840 | -76.15915 | 35975 ft | 456 kts | 281° |
| 2026-05-09 01:18 | 18.52984 | -76.22464 | 35969 ft | 456 kts | 281° |
| 2026-05-09 01:18 | 18.54127 | -76.29021 | 35966 ft | 456 kts | 281° |
| 2026-05-09 01:19 | 18.55274 | -76.35614 | 35966 ft | 456 kts | 281° |
| 2026-05-09 01:19 | 18.56416 | -76.42193 | 35959 ft | 456 kts | 281° |
| 2026-05-09 01:20 | 18.57547 | -76.48725 | 35964 ft | 456 kts | 281° |
| 2026-05-09 01:20 | 18.58689 | -76.55335 | 35963 ft | 456 kts | 281° |
| 2026-05-09 01:21 | 18.59824 | -76.61914 | 35962 ft | 456 kts | 281° |
| 2026-05-09 01:21 | 18.60955 | -76.68483 | 35962 ft | 456 kts | 281° |
| 2026-05-09 01:22 | 18.62089 | -76.75088 | 35965 ft | 457 kts | 281° |
| 2026-05-09 01:22 | 18.63215 | -76.81661 | 35963 ft | 457 kts | 281° |
| 2026-05-09 01:23 | 18.64344 | -76.88260 | 35962 ft | 457 kts | 281° |
| 2026-05-09 01:23 | 18.65472 | -76.94869 | 35966 ft | 457 kts | 281° |
| 2026-05-09 01:24 | 18.66588 | -77.01426 | 35969 ft | 457 kts | 281° |
| 2026-05-09 01:24 | 18.67707 | -77.08011 | 35971 ft | 456 kts | 281° |
| 2026-05-09 01:25 | 18.68823 | -77.14594 | 35974 ft | 456 kts | 281° |
| 2026-05-09 01:25 | 18.69935 | -77.21170 | 35979 ft | 457 kts | 281° |
| 2026-05-09 01:26 | 18.71048 | -77.27764 | 35981 ft | 457 kts | 281° |
| 2026-05-09 01:26 | 18.72163 | -77.34386 | 35982 ft | 457 kts | 281° |
| 2026-05-09 01:27 | 18.73269 | -77.40970 | 35980 ft | 457 kts | 281° |
| 2026-05-09 01:27 | 18.74378 | -77.47587 | 35982 ft | 457 kts | 281° |
| 2026-05-09 01:28 | 18.75479 | -77.54168 | 35984 ft | 457 kts | 281° |
| 2026-05-09 01:28 | 18.76578 | -77.60754 | 35982 ft | 457 kts | 282° |
| 2026-05-09 01:29 | 18.77682 | -77.67380 | 35979 ft | 457 kts | 281° |
| 2026-05-09 01:29 | 18.78776 | -77.73966 | 35977 ft | 457 kts | 282° |
| 2026-05-09 01:30 | 18.79876 | -77.80598 | 35978 ft | 457 kts | 281° |
| 2026-05-09 01:30 | 18.80964 | -77.87177 | 35976 ft | 458 kts | 281° |
| 2026-05-09 01:31 | 18.82057 | -77.93802 | 35981 ft | 458 kts | 281° |
| 2026-05-09 01:31 | 18.83150 | -78.00441 | 35981 ft | 458 kts | 281° |
| 2026-05-09 01:32 | 18.84238 | -78.07060 | 35982 ft | 459 kts | 281° |
| 2026-05-09 01:32 | 18.85324 | -78.13684 | 35982 ft | 459 kts | 281° |
| 2026-05-09 01:33 | 18.86409 | -78.20323 | 35982 ft | 459 kts | 281° |
| 2026-05-09 01:33 | 18.87491 | -78.26946 | 35983 ft | 459 kts | 281° |
| 2026-05-09 01:34 | 18.88576 | -78.33615 | 35978 ft | 459 kts | 281° |
| 2026-05-09 01:34 | 18.89655 | -78.40261 | 35981 ft | 459 kts | 281° |
| 2026-05-09 01:35 | 18.90731 | -78.46899 | 35983 ft | 459 kts | 281° |
| 2026-05-09 01:35 | 18.91810 | -78.53574 | 35981 ft | 459 kts | 281° |
| 2026-05-09 01:36 | 18.92880 | -78.60207 | 35982 ft | 459 kts | 281° |
| 2026-05-09 01:36 | 18.93948 | -78.66848 | 35981 ft | 459 kts | 281° |
| 2026-05-09 01:37 | 18.95016 | -78.73501 | 35982 ft | 459 kts | 281° |
| 2026-05-09 01:37 | 18.96085 | -78.80176 | 35983 ft | 459 kts | 281° |
| 2026-05-09 01:38 | 18.97146 | -78.86818 | 35980 ft | 459 kts | 281° |
| 2026-05-09 01:38 | 18.98204 | -78.93448 | 35980 ft | 459 kts | 281° |
| 2026-05-09 01:39 | 18.99260 | -79.00084 | 35978 ft | 459 kts | 281° |
| 2026-05-09 01:39 | 19.00320 | -79.06761 | 35978 ft | 459 kts | 281° |
| 2026-05-09 01:40 | 19.01372 | -79.13397 | 35976 ft | 459 kts | 281° |
| 2026-05-09 01:40 | 19.02422 | -79.20060 | 35977 ft | 459 kts | 281° |
| 2026-05-09 01:41 | 19.03464 | -79.26685 | 35979 ft | 459 kts | 281° |
| 2026-05-09 01:41 | 19.04515 | -79.33373 | 35980 ft | 459 kts | 281° |
| 2026-05-09 01:42 | 19.05554 | -79.40004 | 35977 ft | 459 kts | 281° |
| 2026-05-09 01:42 | 19.06596 | -79.46666 | 35979 ft | 459 kts | 281° |
| 2026-05-09 01:43 | 19.07630 | -79.53292 | 35975 ft | 459 kts | 281° |
| 2026-05-09 01:43 | 19.08671 | -79.59980 | 35976 ft | 459 kts | 281° |
| 2026-05-09 01:44 | 19.09697 | -79.66592 | 35977 ft | 459 kts | 281° |
| 2026-05-09 01:44 | 19.10557 | -79.72140 | 35977 ft | 459 kts | 281° |
| 2026-05-09 01:45 | 19.11733 | -79.79756 | 35974 ft | 459 kts | 281° |
| 2026-05-09 01:45 | 19.12760 | -79.86418 | 35972 ft | 459 kts | 281° |
| 2026-05-09 01:46 | 19.13789 | -79.93106 | 35976 ft | 459 kts | 281° |
| 2026-05-09 01:46 | 19.14785 | -79.99601 | 35978 ft | 459 kts | 281° |
| 2026-05-09 01:47 | 19.15634 | -80.05145 | 35978 ft | 458 kts | 281° |
| 2026-05-09 01:47 | 19.16652 | -80.11818 | 35977 ft | 458 kts | 281° |
| 2026-05-09 01:48 | 19.17662 | -80.18450 | 35976 ft | 458 kts | 281° |
| 2026-05-09 01:48 | 19.18673 | -80.25102 | 35973 ft | 458 kts | 281° |
| 2026-05-09 01:49 | 19.19685 | -80.31783 | 35975 ft | 458 kts | 281° |
| 2026-05-09 01:49 | 19.20693 | -80.38446 | 35970 ft | 458 kts | 281° |
| 2026-05-09 01:50 | 19.21642 | -80.44743 | 35972 ft | 458 kts | 281° |
| 2026-05-09 01:50 | 19.22657 | -80.51493 | 35967 ft | 459 kts | 281° |
| 2026-05-09 01:51 | 19.23661 | -80.58181 | 35973 ft | 458 kts | 281° |
| 2026-05-09 01:51 | 19.24656 | -80.64832 | 35971 ft | 458 kts | 281° |
| 2026-05-09 01:52 | 19.25651 | -80.71486 | 35971 ft | 458 kts | 281° |
| 2026-05-09 01:52 | 19.26643 | -80.78145 | 35971 ft | 458 kts | 281° |
| 2026-05-09 01:53 | 19.27628 | -80.84786 | 35971 ft | 458 kts | 281° |
| 2026-05-09 01:53 | 19.28616 | -80.91458 | 35971 ft | 458 kts | 281° |
| 2026-05-09 01:54 | 19.29600 | -80.98118 | 35972 ft | 458 kts | 281° |
| 2026-05-09 01:54 | 19.30583 | -81.04786 | 35971 ft | 458 kts | 281° |
| 2026-05-09 01:55 | 19.31540 | -81.11277 | 35971 ft | 459 kts | 281° |
| 2026-05-09 01:55 | 19.32515 | -81.17947 | 35968 ft | 458 kts | 281° |
| 2026-05-09 01:56 | 19.33480 | -81.24539 | 35962 ft | 458 kts | 281° |
| 2026-05-09 01:56 | 19.34427 | -81.31035 | 35967 ft | 458 kts | 281° |
| 2026-05-09 01:57 | 19.35396 | -81.37682 | 35967 ft | 458 kts | 281° |
| 2026-05-09 01:57 | 19.36359 | -81.44332 | 35965 ft | 458 kts | 281° |
| 2026-05-09 01:58 | 19.37316 | -81.50953 | 35967 ft | 458 kts | 281° |
| 2026-05-09 01:58 | 19.38285 | -81.57652 | 35967 ft | 458 kts | 281° |
| 2026-05-09 01:59 | 19.39244 | -81.64321 | 35967 ft | 458 kts | 281° |
| 2026-05-09 01:59 | 19.40206 | -81.71013 | 35966 ft | 458 kts | 281° |
| 2026-05-09 02:00 | 19.41161 | -81.77684 | 35962 ft | 458 kts | 280° |
| 2026-05-09 02:00 | 19.42112 | -81.84342 | 35961 ft | 458 kts | 281° |
| 2026-05-09 02:01 | 19.43059 | -81.90985 | 35966 ft | 458 kts | 280° |
| 2026-05-09 02:01 | 19.44007 | -81.97654 | 35967 ft | 458 kts | 281° |
| 2026-05-09 02:02 | 19.44983 | -82.04328 | 35956 ft | 456 kts | 285° |
| 2026-05-09 02:02 | 19.46595 | -82.10803 | 35948 ft | 456 kts | 286° |
| 2026-05-09 02:03 | 19.48121 | -82.17304 | 35960 ft | 456 kts | 286° |
| 2026-05-09 02:03 | 19.49640 | -82.23818 | 35964 ft | 456 kts | 286° |
| 2026-05-09 02:04 | 19.51176 | -82.30419 | 35959 ft | 455 kts | 285° |
| 2026-05-09 02:04 | 19.52684 | -82.36906 | 35963 ft | 455 kts | 285° |
| 2026-05-09 02:05 | 19.54197 | -82.43429 | 35965 ft | 455 kts | 285° |
| 2026-05-09 02:05 | 19.55699 | -82.49917 | 35963 ft | 455 kts | 285° |
| 2026-05-09 02:06 | 19.57207 | -82.56442 | 35966 ft | 455 kts | 285° |
| 2026-05-09 02:07 | 19.59464 | -82.66228 | 35965 ft | 454 kts | 285° |
| 2026-05-09 02:07 | 19.60951 | -82.72692 | 35965 ft | 454 kts | 285° |
| 2026-05-09 02:08 | 19.62451 | -82.79219 | 35963 ft | 454 kts | 285° |
| 2026-05-09 02:08 | 19.63946 | -82.85739 | 35964 ft | 454 kts | 285° |
| 2026-05-09 02:09 | 19.65435 | -82.92245 | 35963 ft | 454 kts | 285° |
| 2026-05-09 02:09 | 19.66915 | -82.98724 | 35964 ft | 454 kts | 285° |
| 2026-05-09 02:10 | 19.68404 | -83.05247 | 35962 ft | 453 kts | 285° |
| 2026-05-09 02:10 | 19.69882 | -83.11740 | 35962 ft | 453 kts | 285° |
| 2026-05-09 02:11 | 19.71365 | -83.18262 | 35959 ft | 453 kts | 285° |
| 2026-05-09 02:11 | 19.72838 | -83.24756 | 35957 ft | 453 kts | 285° |
| 2026-05-09 02:12 | 19.74306 | -83.31240 | 35959 ft | 453 kts | 285° |
| 2026-05-09 02:12 | 19.75771 | -83.37717 | 35958 ft | 452 kts | 285° |
| 2026-05-09 02:13 | 19.77241 | -83.44232 | 35958 ft | 452 kts | 285° |
| 2026-05-09 02:13 | 19.78696 | -83.50687 | 35958 ft | 452 kts | 285° |
| 2026-05-09 02:14 | 19.80157 | -83.57185 | 35956 ft | 451 kts | 285° |
| 2026-05-09 02:14 | 19.81608 | -83.63650 | 35957 ft | 451 kts | 285° |
| 2026-05-09 02:15 | 19.83065 | -83.70150 | 35958 ft | 451 kts | 285° |
| 2026-05-09 02:15 | 19.84514 | -83.76624 | 35956 ft | 451 kts | 285° |
| 2026-05-09 02:16 | 19.85956 | -83.83083 | 35951 ft | 451 kts | 285° |
| 2026-05-09 02:16 | 19.87402 | -83.89573 | 35951 ft | 451 kts | 285° |
| 2026-05-09 02:17 | 19.88846 | -83.96063 | 35954 ft | 451 kts | 285° |
| 2026-05-09 02:17 | 19.90281 | -84.02526 | 35953 ft | 451 kts | 284° |
| 2026-05-09 02:18 | 19.91724 | -84.09033 | 35950 ft | 450 kts | 284° |
| 2026-05-09 02:18 | 19.93152 | -84.15487 | 35949 ft | 450 kts | 284° |
| 2026-05-09 02:19 | 19.94589 | -84.21993 | 35950 ft | 450 kts | 284° |
| 2026-05-09 02:19 | 19.96009 | -84.28433 | 35949 ft | 450 kts | 284° |
| 2026-05-09 02:20 | 19.97440 | -84.34936 | 35947 ft | 450 kts | 284° |
| 2026-05-09 02:20 | 19.98860 | -84.41399 | 35949 ft | 450 kts | 284° |
| 2026-05-09 02:21 | 20.00284 | -84.47893 | 35949 ft | 450 kts | 284° |
| 2026-05-09 02:21 | 20.01694 | -84.54335 | 35946 ft | 449 kts | 284° |
| 2026-05-09 02:22 | 20.03114 | -84.60835 | 35942 ft | 449 kts | 284° |
| 2026-05-09 02:22 | 20.04518 | -84.67276 | 35940 ft | 449 kts | 284° |
| 2026-05-09 02:23 | 20.05929 | -84.73757 | 35944 ft | 448 kts | 284° |
| 2026-05-09 02:23 | 20.07337 | -84.80238 | 35940 ft | 448 kts | 284° |
| 2026-05-09 02:24 | 20.08735 | -84.86686 | 35940 ft | 448 kts | 284° |
| 2026-05-09 02:24 | 20.10128 | -84.93119 | 35941 ft | 448 kts | 284° |
| 2026-05-09 02:25 | 20.11519 | -84.99559 | 35938 ft | 447 kts | 284° |
| 2026-05-09 02:25 | 20.12911 | -85.06014 | 35939 ft | 447 kts | 284° |
| 2026-05-09 02:26 | 20.14297 | -85.12447 | 35938 ft | 447 kts | 284° |
| 2026-05-09 02:26 | 20.15688 | -85.18918 | 35935 ft | 447 kts | 283° |
| 2026-05-09 02:27 | 20.16845 | -85.24308 | 35935 ft | 447 kts | 283° |
| 2026-05-09 02:27 | 20.18456 | -85.31827 | 35934 ft | 446 kts | 283° |
| 2026-05-09 02:28 | 20.19788 | -85.38248 | 35932 ft | 446 kts | 283° |
| 2026-05-09 02:28 | 20.21118 | -85.44677 | 35932 ft | 446 kts | 283° |
| 2026-05-09 02:29 | 20.22454 | -85.51143 | 35930 ft | 446 kts | 283° |
| 2026-05-09 02:29 | 20.23786 | -85.57600 | 35931 ft | 446 kts | 283° |
| 2026-05-09 02:30 | 20.25108 | -85.64025 | 35930 ft | 446 kts | 283° |
| 2026-05-09 02:30 | 20.26432 | -85.70469 | 35929 ft | 446 kts | 282° |
| 2026-05-09 02:31 | 20.27537 | -85.75852 | 35929 ft | 445 kts | 282° |
| 2026-05-09 02:31 | 20.28852 | -85.82278 | 35929 ft | 445 kts | 282° |
| 2026-05-09 02:32 | 20.30171 | -85.88738 | 35928 ft | 446 kts | 282° |
| 2026-05-09 02:32 | 20.31703 | -85.96248 | 35927 ft | 445 kts | 282° |
| 2026-05-09 02:33 | 20.32797 | -86.01626 | 35931 ft | 445 kts | 282° |
| 2026-05-09 02:33 | 20.34105 | -86.08065 | 35933 ft | 445 kts | 282° |
| 2026-05-09 02:34 | 20.35415 | -86.14524 | 35928 ft | 445 kts | 282° |
| 2026-05-09 02:34 | 20.36717 | -86.20955 | 35929 ft | 445 kts | 282° |
| 2026-05-09 02:35 | 20.38021 | -86.27427 | 35931 ft | 445 kts | 282° |
| 2026-05-09 02:35 | 20.39316 | -86.33856 | 35932 ft | 445 kts | 282° |
| 2026-05-09 02:36 | 20.40616 | -86.40320 | 35931 ft | 445 kts | 282° |
| 2026-05-09 02:36 | 20.41904 | -86.46743 | 35927 ft | 445 kts | 282° |
| 2026-05-09 02:37 | 20.43190 | -86.53170 | 35927 ft | 444 kts | 282° |
| 2026-05-09 02:37 | 20.44483 | -86.59647 | 35929 ft | 444 kts | 282° |
| 2026-05-09 02:38 | 20.45763 | -86.66069 | 35930 ft | 444 kts | 282° |
| 2026-05-09 02:38 | 20.47051 | -86.72544 | 35931 ft | 445 kts | 282° |
| 2026-05-09 02:39 | 20.48329 | -86.78981 | 35932 ft | 445 kts | 282° |
| 2026-05-09 02:39 | 20.49614 | -86.85470 | 35934 ft | 446 kts | 282° |
| 2026-05-09 02:40 | 20.50788 | -86.91943 | 35930 ft | 446 kts | 276° |
| 2026-05-09 02:40 | 20.51419 | -86.98511 | 35935 ft | 446 kts | 275° |
| 2026-05-09 02:41 | 20.52030 | -87.05131 | 35934 ft | 446 kts | 275° |
| 2026-05-09 02:41 | 20.52632 | -87.11710 | 35931 ft | 446 kts | 275° |
| 2026-05-09 02:42 | 20.53232 | -87.18292 | 35924 ft | 446 kts | 275° |
| 2026-05-09 02:42 | 20.53828 | -87.24859 | 35924 ft | 446 kts | 275° |
| 2026-05-09 02:43 | 20.54423 | -87.31453 | 35922 ft | 446 kts | 275° |
| 2026-05-09 02:43 | 20.55020 | -87.38059 | 35922 ft | 446 kts | 275° |
| 2026-05-09 02:44 | 20.55612 | -87.44616 | 35919 ft | 446 kts | 275° |
| 2026-05-09 02:44 | 20.56204 | -87.51221 | 35923 ft | 446 kts | 275° |
| 2026-05-09 02:45 | 20.56795 | -87.57825 | 35922 ft | 446 kts | 275° |
| 2026-05-09 02:45 | 20.57378 | -87.64372 | 35922 ft | 446 kts | 275° |
| 2026-05-09 02:46 | 20.57964 | -87.70984 | 35919 ft | 446 kts | 275° |
| 2026-05-09 02:46 | 20.58541 | -87.77526 | 35917 ft | 445 kts | 275° |
| 2026-05-09 02:47 | 20.59118 | -87.84141 | 35917 ft | 445 kts | 275° |
| 2026-05-09 02:47 | 20.59688 | -87.90696 | 35916 ft | 445 kts | 275° |
| 2026-05-09 02:48 | 20.60258 | -87.97268 | 35916 ft | 445 kts | 275° |
| 2026-05-09 02:48 | 20.60827 | -88.03871 | 35916 ft | 445 kts | 275° |
| 2026-05-09 02:49 | 20.61392 | -88.10435 | 35914 ft | 445 kts | 275° |
| 2026-05-09 02:49 | 20.61956 | -88.17037 | 35913 ft | 446 kts | 275° |
| 2026-05-09 02:50 | 20.62516 | -88.23613 | 35915 ft | 446 kts | 275° |
| 2026-05-09 02:50 | 20.63074 | -88.30192 | 35913 ft | 446 kts | 275° |
| 2026-05-09 02:51 | 20.63631 | -88.36796 | 35909 ft | 446 kts | 275° |
| 2026-05-09 02:51 | 20.64185 | -88.43383 | 35906 ft | 446 kts | 274° |
| 2026-05-09 02:52 | 20.64409 | -88.50018 | 35905 ft | 446 kts | 271° |
| 2026-05-09 02:52 | 20.64627 | -88.56628 | 35903 ft | 447 kts | 272° |
| 2026-05-09 02:53 | 20.64852 | -88.63244 | 35903 ft | 447 kts | 272° |
| 2026-05-09 02:53 | 20.65075 | -88.69883 | 35902 ft | 447 kts | 271° |
| 2026-05-09 02:54 | 20.65295 | -88.76499 | 35899 ft | 447 kts | 271° |
| 2026-05-09 02:54 | 20.65515 | -88.83174 | 35901 ft | 447 kts | 271° |
| 2026-05-09 02:55 | 20.65731 | -88.89795 | 35893 ft | 447 kts | 271° |
| 2026-05-09 02:55 | 20.65942 | -88.96398 | 35893 ft | 447 kts | 271° |
| 2026-05-09 02:56 | 20.66154 | -89.03071 | 35892 ft | 447 kts | 271° |
| 2026-05-09 02:56 | 20.66361 | -89.09662 | 35891 ft | 447 kts | 271° |
| 2026-05-09 02:57 | 20.66566 | -89.16276 | 35887 ft | 446 kts | 271° |
| 2026-05-09 02:57 | 20.66770 | -89.22936 | 35887 ft | 446 kts | 271° |
| 2026-05-09 02:58 | 20.66969 | -89.29532 | 35884 ft | 445 kts | 271° |
| 2026-05-09 02:58 | 20.67165 | -89.36112 | 35881 ft | 445 kts | 271° |
| 2026-05-09 02:59 | 20.67361 | -89.42744 | 35873 ft | 444 kts | 271° |
| 2026-05-09 02:59 | 20.67552 | -89.49322 | 35868 ft | 444 kts | 271° |
| 2026-05-09 03:00 | 20.67741 | -89.55889 | 35863 ft | 443 kts | 271° |
| 2026-05-09 03:00 | 20.67927 | -89.62450 | 35861 ft | 443 kts | 271° |
| 2026-05-09 03:01 | 20.68111 | -89.69058 | 35859 ft | 443 kts | 271° |
| 2026-05-09 03:01 | 20.68292 | -89.75607 | 35860 ft | 443 kts | 271° |
| 2026-05-09 03:02 | 20.68470 | -89.82184 | 35855 ft | 443 kts | 271° |
| 2026-05-09 03:02 | 20.68645 | -89.88732 | 35854 ft | 443 kts | 271° |
| 2026-05-09 03:03 | 20.68819 | -89.95284 | 35852 ft | 442 kts | 271° |
| 2026-05-09 03:03 | 20.68991 | -90.01879 | 35852 ft | 442 kts | 271° |
| 2026-05-09 03:04 | 20.69159 | -90.08449 | 35856 ft | 442 kts | 271° |
| 2026-05-09 03:04 | 20.69325 | -90.14997 | 35852 ft | 442 kts | 271° |
| 2026-05-09 03:05 | 20.69488 | -90.21538 | 35850 ft | 442 kts | 271° |
| 2026-05-09 03:05 | 20.69648 | -90.28084 | 35853 ft | 442 kts | 271° |
| 2026-05-09 03:06 | 20.69807 | -90.34651 | 35852 ft | 442 kts | 271° |
| 2026-05-09 03:06 | 20.69963 | -90.41205 | 35851 ft | 442 kts | 271° |
| 2026-05-09 03:07 | 20.70118 | -90.47782 | 35851 ft | 442 kts | 271° |
| 2026-05-09 03:07 | 20.70269 | -90.54301 | 35851 ft | 442 kts | 271° |
| 2026-05-09 03:08 | 20.70414 | -90.60898 | 35851 ft | 442 kts | 271° |
| 2026-05-09 03:08 | 20.70555 | -90.67419 | 35850 ft | 442 kts | 271° |
| 2026-05-09 03:09 | 20.70696 | -90.74012 | 35850 ft | 442 kts | 271° |
| 2026-05-09 03:09 | 20.70835 | -90.80576 | 35852 ft | 442 kts | 271° |
| 2026-05-09 03:10 | 20.70948 | -90.86047 | 35852 ft | 442 kts | 271° |
| 2026-05-09 03:10 | 20.71082 | -90.92591 | 35856 ft | 442 kts | 271° |
| 2026-05-09 03:11 | 20.71212 | -90.99132 | 35852 ft | 442 kts | 271° |
| 2026-05-09 03:11 | 20.71362 | -91.06776 | 35855 ft | 442 kts | 270° |
| 2026-05-09 03:12 | 20.71488 | -91.13365 | 35852 ft | 442 kts | 270° |
| 2026-05-09 03:12 | 20.71611 | -91.19904 | 35855 ft | 442 kts | 270° |
| 2026-05-09 03:13 | 20.71790 | -91.29729 | 35858 ft | 442 kts | 270° |
| 2026-05-09 03:13 | 20.71908 | -91.36298 | 35858 ft | 442 kts | 270° |
| 2026-05-09 03:14 | 20.72022 | -91.42871 | 35858 ft | 442 kts | 270° |
| 2026-05-09 03:14 | 20.72134 | -91.49406 | 35856 ft | 442 kts | 270° |
| 2026-05-09 03:15 | 20.72244 | -91.55996 | 35858 ft | 442 kts | 270° |
| 2026-05-09 03:15 | 20.72351 | -91.62536 | 35860 ft | 442 kts | 270° |
| 2026-05-09 03:16 | 20.72455 | -91.69072 | 35858 ft | 442 kts | 270° |
| 2026-05-09 03:16 | 20.72540 | -91.74538 | 35863 ft | 442 kts | 270° |
| 2026-05-09 03:17 | 20.72656 | -91.82191 | 35860 ft | 442 kts | 270° |
| 2026-05-09 03:17 | 20.72754 | -91.88761 | 35862 ft | 442 kts | 270° |
| 2026-05-09 03:18 | 20.72848 | -91.95313 | 35859 ft | 442 kts | 270° |
| 2026-05-09 03:18 | 20.72925 | -92.00804 | 35859 ft | 442 kts | 270° |
| 2026-05-09 03:19 | 20.73015 | -92.07368 | 35857 ft | 443 kts | 270° |
| 2026-05-09 03:19 | 20.73103 | -92.13961 | 35856 ft | 443 kts | 270° |
| 2026-05-09 03:20 | 20.73188 | -92.20516 | 35858 ft | 443 kts | 270° |
| 2026-05-09 03:20 | 20.73271 | -92.27107 | 35857 ft | 443 kts | 270° |
| 2026-05-09 03:21 | 20.73351 | -92.33666 | 35856 ft | 443 kts | 270° |
| 2026-05-09 03:21 | 20.73429 | -92.40229 | 35850 ft | 443 kts | 270° |
| 2026-05-09 03:22 | 20.73504 | -92.46821 | 35852 ft | 443 kts | 270° |
| 2026-05-09 03:22 | 20.73577 | -92.53391 | 35852 ft | 443 kts | 270° |
| 2026-05-09 03:23 | 20.73647 | -92.59957 | 35851 ft | 443 kts | 270° |
| 2026-05-09 03:23 | 20.73715 | -92.66572 | 35853 ft | 443 kts | 270° |
| 2026-05-09 03:24 | 20.73780 | -92.73134 | 35852 ft | 443 kts | 270° |
| 2026-05-09 03:24 | 20.73843 | -92.79689 | 35851 ft | 443 kts | 270° |
| 2026-05-09 03:25 | 20.73904 | -92.86287 | 35851 ft | 443 kts | 270° |
| 2026-05-09 03:25 | 20.73961 | -92.92856 | 35852 ft | 443 kts | 270° |
| 2026-05-09 03:26 | 20.74017 | -92.99445 | 35850 ft | 443 kts | 270° |
| 2026-05-09 03:26 | 20.74069 | -93.06027 | 35851 ft | 443 kts | 270° |
| 2026-05-09 03:27 | 20.74120 | -93.12597 | 35852 ft | 443 kts | 270° |
| 2026-05-09 03:27 | 20.74168 | -93.19166 | 35847 ft | 443 kts | 270° |
| 2026-05-09 03:28 | 20.74214 | -93.25727 | 35848 ft | 443 kts | 270° |
| 2026-05-09 03:28 | 20.74258 | -93.32333 | 35847 ft | 443 kts | 270° |
| 2026-05-09 03:29 | 20.74300 | -93.38887 | 35849 ft | 443 kts | 270° |
| 2026-05-09 03:29 | 20.74333 | -93.45441 | 35850 ft | 443 kts | 269° |
| 2026-05-09 03:30 | 20.74368 | -93.52047 | 35849 ft | 442 kts | 269° |
| 2026-05-09 03:30 | 20.74401 | -93.58593 | 35849 ft | 442 kts | 269° |
| 2026-05-09 03:31 | 20.74431 | -93.65138 | 35849 ft | 442 kts | 269° |
| 2026-05-09 03:31 | 20.74459 | -93.71728 | 35847 ft | 442 kts | 269° |
| 2026-05-09 03:32 | 20.74484 | -93.78302 | 35846 ft | 442 kts | 269° |
| 2026-05-09 03:32 | 20.74507 | -93.84850 | 35846 ft | 442 kts | 269° |
| 2026-05-09 03:33 | 20.74527 | -93.91398 | 35847 ft | 442 kts | 269° |
| 2026-05-09 03:33 | 20.74545 | -93.97952 | 35842 ft | 442 kts | 269° |
| 2026-05-09 03:34 | 20.74560 | -94.04511 | 35845 ft | 442 kts | 269° |
| 2026-05-09 03:34 | 20.74573 | -94.11093 | 35844 ft | 442 kts | 269° |
| 2026-05-09 03:35 | 20.74583 | -94.17641 | 35844 ft | 442 kts | 269° |
| 2026-05-09 03:35 | 20.74591 | -94.24178 | 35843 ft | 442 kts | 269° |
| 2026-05-09 03:36 | 20.74596 | -94.30769 | 35840 ft | 442 kts | 269° |
| 2026-05-09 03:36 | 20.74599 | -94.37320 | 35838 ft | 442 kts | 269° |
| 2026-05-09 03:37 | 20.74599 | -94.43892 | 35840 ft | 441 kts | 269° |
| 2026-05-09 03:37 | 20.74597 | -94.50437 | 35840 ft | 441 kts | 269° |
| 2026-05-09 03:38 | 20.74592 | -94.56999 | 35841 ft | 441 kts | 269° |
| 2026-05-09 03:38 | 20.74585 | -94.63510 | 35840 ft | 441 kts | 269° |
| 2026-05-09 03:39 | 20.74575 | -94.70084 | 35840 ft | 441 kts | 269° |
| 2026-05-09 03:39 | 20.74563 | -94.76650 | 35841 ft | 441 kts | 269° |
| 2026-05-09 03:40 | 20.74548 | -94.83177 | 35839 ft | 441 kts | 269° |
| 2026-05-09 03:40 | 20.74533 | -94.89696 | 35838 ft | 440 kts | 269° |
| 2026-05-09 03:41 | 20.74514 | -94.96253 | 35836 ft | 440 kts | 269° |
| 2026-05-09 03:41 | 20.73974 | -95.02746 | 35845 ft | 438 kts | 258° |
| 2026-05-09 03:42 | 20.72822 | -95.09122 | 35837 ft | 439 kts | 258° |
| 2026-05-09 03:42 | 20.71647 | -95.15521 | 35837 ft | 439 kts | 258° |
| 2026-05-09 03:43 | 20.70471 | -95.21894 | 35837 ft | 438 kts | 258° |
| 2026-05-09 03:43 | 20.69291 | -95.28279 | 35837 ft | 438 kts | 258° |
| 2026-05-09 03:44 | 20.68107 | -95.34667 | 35836 ft | 438 kts | 258° |
| 2026-05-09 03:44 | 20.66928 | -95.41016 | 35840 ft | 437 kts | 258° |
| 2026-05-09 03:45 | 20.65747 | -95.47364 | 35839 ft | 437 kts | 258° |
| 2026-05-09 03:45 | 20.64564 | -95.53704 | 35838 ft | 436 kts | 258° |
| 2026-05-09 03:46 | 20.63375 | -95.60069 | 35841 ft | 436 kts | 258° |
| 2026-05-09 03:46 | 20.62184 | -95.66429 | 35838 ft | 436 kts | 258° |
| 2026-05-09 03:47 | 20.60990 | -95.72788 | 35839 ft | 436 kts | 258° |
| 2026-05-09 03:47 | 20.59805 | -95.79094 | 35838 ft | 435 kts | 258° |
| 2026-05-09 03:48 | 20.58616 | -95.85401 | 35837 ft | 435 kts | 258° |
| 2026-05-09 03:48 | 20.57416 | -95.91756 | 35838 ft | 434 kts | 258° |
| 2026-05-09 03:49 | 20.56223 | -95.98060 | 35835 ft | 435 kts | 258° |
| 2026-05-09 03:49 | 20.55026 | -96.04370 | 35839 ft | 435 kts | 258° |
| 2026-05-09 03:50 | 20.53828 | -96.10681 | 35836 ft | 435 kts | 258° |
| 2026-05-09 03:50 | 20.52621 | -96.17016 | 35838 ft | 435 kts | 258° |
| 2026-05-09 03:51 | 20.51408 | -96.23370 | 35836 ft | 435 kts | 258° |
| 2026-05-09 03:51 | 20.50200 | -96.29682 | 35834 ft | 435 kts | 258° |
| 2026-05-09 03:52 | 20.48989 | -96.35995 | 35835 ft | 435 kts | 257° |
| 2026-05-09 03:52 | 20.47772 | -96.42332 | 35835 ft | 435 kts | 257° |
| 2026-05-09 03:53 | 20.46559 | -96.48633 | 35836 ft | 435 kts | 257° |
| 2026-05-09 03:53 | 20.45336 | -96.54972 | 35832 ft | 435 kts | 257° |
| 2026-05-09 03:54 | 20.44119 | -96.61268 | 35834 ft | 435 kts | 257° |
| 2026-05-09 03:54 | 20.42901 | -96.67557 | 35833 ft | 434 kts | 257° |
| 2026-05-09 03:55 | 20.41672 | -96.73890 | 35833 ft | 434 kts | 257° |
| 2026-05-09 03:55 | 20.40453 | -96.80161 | 35831 ft | 434 kts | 257° |
| 2026-05-09 03:56 | 20.39067 | -96.86447 | 35835 ft | 433 kts | 251° |
| 2026-05-09 03:56 | 20.37325 | -96.92545 | 35833 ft | 433 kts | 252° |
| 2026-05-09 03:57 | 20.35614 | -96.98718 | 35831 ft | 434 kts | 252° |
| 2026-05-09 03:57 | 20.33906 | -97.04905 | 35833 ft | 434 kts | 252° |
| 2026-05-09 03:58 | 20.32204 | -97.11065 | 35838 ft | 434 kts | 252° |
| 2026-05-09 03:58 | 20.30503 | -97.17209 | 35839 ft | 434 kts | 252° |
| 2026-05-09 03:59 | 20.28789 | -97.23392 | 35842 ft | 434 kts | 252° |
| 2026-05-09 03:59 | 20.27087 | -97.29526 | 35841 ft | 434 kts | 252° |
| 2026-05-09 04:00 | 20.25367 | -97.35712 | 35848 ft | 435 kts | 252° |
| 2026-05-09 04:00 | 20.23645 | -97.41898 | 35856 ft | 435 kts | 252° |
| 2026-05-09 04:01 | 20.21925 | -97.48067 | 35860 ft | 435 kts | 252° |
| 2026-05-09 04:01 | 20.20205 | -97.54225 | 35872 ft | 435 kts | 252° |
| 2026-05-09 04:02 | 20.18474 | -97.60416 | 35880 ft | 436 kts | 252° |
| 2026-05-09 04:02 | 20.17610 | -97.63503 | 35710 ft | 432 kts | 252° |
| 2026-05-09 04:02 | 20.16764 | -97.66525 | 35494 ft | 428 kts | 252° |
| 2026-05-09 04:03 | 20.15910 | -97.69566 | 35166 ft | 422 kts | 252° |
| 2026-05-09 04:03 | 20.15075 | -97.72544 | 34556 ft | 423 kts | 252° |
| 2026-05-09 04:03 | 20.14226 | -97.75571 | 33940 ft | 424 kts | 252° |
| 2026-05-09 04:03 | 20.13407 | -97.78553 | 33377 ft | 423 kts | 255° |
| 2026-05-09 04:04 | 20.13092 | -97.81669 | 32775 ft | 424 kts | 269° |
| 2026-05-09 04:04 | 20.13099 | -97.83733 | 32470 ft | 420 kts | 267° |
| 2026-05-09 04:04 | 20.13036 | -97.87843 | 31878 ft | 415 kts | 267° |
| 2026-05-09 04:04 | 20.13014 | -97.89916 | 31559 ft | 413 kts | 267° |
| 2026-05-09 04:05 | 20.12983 | -97.93957 | 30927 ft | 409 kts | 268° |
| 2026-05-09 04:05 | 20.12971 | -97.95957 | 30610 ft | 408 kts | 268° |
| 2026-05-09 04:05 | 20.12947 | -97.99945 | 29975 ft | 405 kts | 268° |
| 2026-05-09 04:05 | 20.12929 | -98.02942 | 29440 ft | 402 kts | 267° |
| 2026-05-09 04:06 | 20.12909 | -98.05915 | 28913 ft | 400 kts | 268° |
| 2026-05-09 04:06 | 20.12888 | -98.08840 | 28467 ft | 396 kts | 268° |
| 2026-05-09 04:06 | 20.12867 | -98.11773 | 28054 ft | 391 kts | 268° |
| 2026-05-09 04:06 | 20.12845 | -98.14655 | 27617 ft | 387 kts | 268° |
| 2026-05-09 04:07 | 20.12824 | -98.17474 | 27179 ft | 384 kts | 268° |
| 2026-05-09 04:07 | 20.12802 | -98.20331 | 26738 ft | 381 kts | 268° |
| 2026-05-09 04:07 | 20.12787 | -98.22200 | 26451 ft | 379 kts | 268° |
| 2026-05-09 04:07 | 20.12757 | -98.25923 | 25875 ft | 376 kts | 268° |
| 2026-05-09 04:08 | 20.12742 | -98.27745 | 25591 ft | 374 kts | 268° |
| 2026-05-09 04:08 | 20.12955 | -98.31448 | 24950 ft | 376 kts | 280° |
| 2026-05-09 04:08 | 20.13495 | -98.34142 | 24549 ft | 374 kts | 279° |
| 2026-05-09 04:08 | 20.13835 | -98.35943 | 24284 ft | 372 kts | 279° |
| 2026-05-09 04:09 | 20.14351 | -98.38659 | 23870 ft | 371 kts | 279° |
| 2026-05-09 04:09 | 20.14857 | -98.41321 | 23420 ft | 370 kts | 279° |
| 2026-05-09 04:09 | 20.15367 | -98.44006 | 22934 ft | 368 kts | 279° |
| 2026-05-09 04:09 | 20.15872 | -98.46671 | 22502 ft | 365 kts | 279° |
| 2026-05-09 04:10 | 20.16534 | -98.50166 | 21947 ft | 361 kts | 279° |
| 2026-05-09 04:10 | 20.16869 | -98.51933 | 21674 ft | 359 kts | 279° |
| 2026-05-09 04:10 | 20.17356 | -98.54505 | 21271 ft | 356 kts | 279° |
| 2026-05-09 04:10 | 20.17841 | -98.57070 | 20868 ft | 353 kts | 280° |
| 2026-05-09 04:11 | 20.18325 | -98.59630 | 20462 ft | 350 kts | 280° |
| 2026-05-09 04:11 | 20.18799 | -98.62144 | 20072 ft | 348 kts | 280° |
| 2026-05-09 04:11 | 20.19276 | -98.64669 | 19672 ft | 346 kts | 280° |
| 2026-05-09 04:11 | 20.19750 | -98.67186 | 19268 ft | 343 kts | 280° |
| 2026-05-09 04:12 | 20.20213 | -98.69642 | 18885 ft | 340 kts | 280° |
| 2026-05-09 04:12 | 20.20678 | -98.72115 | 18491 ft | 339 kts | 280° |
| 2026-05-09 04:12 | 20.21134 | -98.74539 | 18258 ft | 331 kts | 280° |
| 2026-05-09 04:12 | 20.21499 | -98.76955 | 17864 ft | 328 kts | 270° |
| 2026-05-09 04:13 | 20.21144 | -98.79330 | 17541 ft | 324 kts | 249° |
| 2026-05-09 04:13 | 20.20043 | -98.81375 | 17249 ft | 322 kts | 230° |
| 2026-05-09 04:13 | 20.18403 | -98.83010 | 16939 ft | 322 kts | 220° |
| 2026-05-09 04:13 | 20.16660 | -98.84537 | 16580 ft | 323 kts | 220° |
| 2026-05-09 04:14 | 20.14916 | -98.86016 | 16107 ft | 326 kts | 219° |
| 2026-05-09 04:14 | 20.13131 | -98.87503 | 15713 ft | 324 kts | 218° |
| 2026-05-09 04:14 | 20.11627 | -98.88745 | 15414 ft | 321 kts | 218° |
| 2026-05-09 04:14 | 20.09958 | -98.90113 | 15103 ft | 318 kts | 218° |
| 2026-05-09 04:15 | 20.08231 | -98.91523 | 14793 ft | 314 kts | 218° |
| 2026-05-09 04:15 | 20.06500 | -98.92933 | 14502 ft | 310 kts | 218° |
| 2026-05-09 04:15 | 20.04788 | -98.94326 | 14211 ft | 309 kts | 218° |
| 2026-05-09 04:15 | 20.03096 | -98.95702 | 13924 ft | 310 kts | 218° |
| 2026-05-09 04:16 | 20.01377 | -98.97098 | 13595 ft | 310 kts | 218° |
| 2026-05-09 04:16 | 19.99672 | -98.98484 | 13288 ft | 307 kts | 218° |
| 2026-05-09 04:16 | 19.97979 | -98.99859 | 12997 ft | 303 kts | 218° |
| 2026-05-09 04:16 | 19.96313 | -99.01212 | 12705 ft | 298 kts | 218° |
| 2026-05-09 04:17 | 19.94688 | -99.02530 | 12433 ft | 294 kts | 218° |
| 2026-05-09 04:17 | 19.93066 | -99.03847 | 12150 ft | 290 kts | 218° |
| 2026-05-09 04:17 | 19.91476 | -99.05137 | 11879 ft | 286 kts | 218° |
| 2026-05-09 04:17 | 19.89914 | -99.06403 | 11607 ft | 282 kts | 218° |
| 2026-05-09 04:18 | 19.88360 | -99.07664 | 11335 ft | 278 kts | 217° |
| 2026-05-09 04:18 | 19.86850 | -99.08888 | 11062 ft | 274 kts | 217° |
| 2026-05-09 04:18 | 19.85341 | -99.10112 | 10804 ft | 270 kts | 217° |
| 2026-05-09 04:18 | 19.83927 | -99.11394 | 10621 ft | 263 kts | 223° |
| 2026-05-09 04:19 | 19.82606 | -99.12689 | 10441 ft | 256 kts | 222° |
| 2026-05-09 04:19 | 19.81310 | -99.13945 | 10281 ft | 250 kts | 221° |
| 2026-05-09 04:19 | 19.80006 | -99.15203 | 10116 ft | 253 kts | 221° |
| 2026-05-09 04:19 | 19.78712 | -99.16446 | 9939 ft | 253 kts | 221° |
| 2026-05-09 04:20 | 19.77399 | -99.17705 | 9767 ft | 253 kts | 221° |
| 2026-05-09 04:20 | 19.76094 | -99.18955 | 9590 ft | 253 kts | 221° |
| 2026-05-09 04:20 | 19.74787 | -99.20178 | 9450 ft | 252 kts | 216° |
| 2026-05-09 04:20 | 19.73199 | -99.20858 | 9340 ft | 244 kts | 183° |
| 2026-05-09 04:21 | 19.71570 | -99.20760 | 9321 ft | 227 kts | 174° |
| 2026-05-09 04:21 | 19.70055 | -99.20612 | 9261 ft | 214 kts | 174° |
| 2026-05-09 04:21 | 19.67352 | -99.19459 | 9164 ft | 212 kts | 150° |
| 2026-05-09 04:22 | 19.66174 | -99.18534 | 9053 ft | 209 kts | 127° |
| 2026-05-09 04:22 | 19.65612 | -99.17157 | 8953 ft | 207 kts | 97° |
| 2026-05-09 04:22 | 19.65694 | -99.15676 | 8913 ft | 195 kts | 81° |
| 2026-05-09 04:22 | 19.65905 | -99.14295 | 8860 ft | 184 kts | 81° |
| 2026-05-09 04:23 | 19.66189 | -99.12991 | 8652 ft | 182 kts | 64° |
| 2026-05-09 04:23 | 19.66858 | -99.11980 | 8654 ft | 156 kts | 50° |
| 2026-05-09 04:23 | 19.67575 | -99.11118 | 8684 ft | 161 kts | 49° |
| 2026-05-09 04:23 | 19.68326 | -99.10199 | 8678 ft | 167 kts | 50° |
| 2026-05-09 04:24 | 19.68935 | -99.09451 | 8632 ft | 170 kts | 50° |
| 2026-05-09 04:24 | 19.69479 | -99.08783 | 8627 ft | 171 kts | 50° |
| 2026-05-09 04:24 | 19.70262 | -99.07825 | 8533 ft | 170 kts | 50° |
| 2026-05-09 04:24 | 19.70578 | -99.07436 | 8444 ft | 170 kts | 50° |
| 2026-05-09 04:25 | 19.71235 | -99.06630 | 8236 ft | 168 kts | 50° |
| 2026-05-09 04:25 | 19.72002 | -99.05690 | 7953 ft | 167 kts | 50° |
| 2026-05-09 04:25 | 19.72760 | -99.04758 | 7603 ft | 165 kts | 50° |
| 2026-05-09 04:26 | 19.73506 | -99.03855 | 7404 ft | 163 kts | 50° |
| 2026-05-09 04:26 | 19.74197 | -99.03004 | 7379 ft | 137 kts | 50° |
| 2026-05-09 04:26 | 19.74725 | -99.02359 | 7378 ft | 89 kts | 49° |
| 2026-05-09 04:26 | 19.75017 | -99.01999 | 7379 ft | 36 kts | 49° |
| 2026-05-09 04:27 | 19.75105 | -99.01858 | 7380 ft | 18 kts | 94° |
| 2026-05-09 04:27 | 19.75037 | -99.01781 | 7380 ft | 12 kts | 143° |
| 2026-05-09 04:27 | 19.74972 | -99.01795 | 7379 ft | 10 kts | 229° |
| 2026-05-09 04:27 | 19.74927 | -99.01850 | 7380 ft | 10 kts | 229° |
| 2026-05-09 04:28 | 19.74878 | -99.01909 | 7379 ft | 11 kts | 228° |
| 2026-05-09 04:28 | 19.74826 | -99.01972 | 7379 ft | 11 kts | 230° |
| 2026-05-09 04:28 | 19.74774 | -99.02038 | 7379 ft | 12 kts | 228° |
| 2026-05-09 04:28 | 19.74715 | -99.02100 | 7378 ft | 12 kts | 204° |
| 2026-05-09 04:29 | 19.74644 | -99.02074 | 7379 ft | 11 kts | 141° |
| 2026-05-09 04:29 | 19.74590 | -99.02025 | 7379 ft | 11 kts | 139° |
| 2026-05-09 04:29 | 19.74530 | -99.01970 | 7379 ft | 12 kts | 139° |
| 2026-05-09 04:29 | 19.74468 | -99.01913 | 7379 ft | 12 kts | 139° |
| 2026-05-09 04:30 | 19.74404 | -99.01855 | 7380 ft | 12 kts | 139° |
| 2026-05-09 04:30 | 19.74342 | -99.01799 | 7379 ft | 13 kts | 139° |
| 2026-05-09 04:30 | 19.74272 | -99.01736 | 7379 ft | 13 kts | 139° |
| 2026-05-09 04:30 | 19.74203 | -99.01670 | 7379 ft | 13 kts | 138° |
| 2026-05-09 04:31 | 19.74136 | -99.01608 | 7379 ft | 14 kts | 140° |
| 2026-05-09 04:31 | 19.74071 | -99.01551 | 7379 ft | 11 kts | 140° |
| 2026-05-09 04:31 | 19.74014 | -99.01499 | 7379 ft | 12 kts | 140° |
| 2026-05-09 04:31 | 19.73960 | -99.01466 | 7379 ft | 8 kts | 169° |
| 2026-05-09 04:32 | 19.73909 | -99.01492 | 7379 ft | 10 kts | 234° |
| 2026-05-09 04:32 | 19.73857 | -99.01560 | 7379 ft | 13 kts | 230° |
| 2026-05-09 04:32 | 19.73792 | -99.01641 | 7379 ft | 16 kts | 230° |
| 2026-05-09 04:32 | 19.73718 | -99.01730 | 7379 ft | 14 kts | 227° |
| 2026-05-09 04:33 | 19.73659 | -99.01800 | 7379 ft | 11 kts | 230° |
| 2026-05-09 04:33 | 19.73615 | -99.01855 | 7379 ft | 8 kts | 230° |
| 2026-05-09 04:33 | 19.73584 | -99.01894 | 7379 ft | 6 kts | 229° |
| 2026-05-09 04:33 | 19.73556 | -99.01928 | 7379 ft | 7 kts | 229° |
| 2026-05-09 04:34 | 19.73521 | -99.01969 | 7379 ft | 8 kts | 228° |
| 2026-05-09 04:34 | 19.73492 | -99.02016 | 7379 ft | 7 kts | 265° |
| 2026-05-09 04:34 | 19.73509 | -99.02045 | 7379 ft | 3 kts | 316° |
| 2026-05-09 04:34 | 19.73523 | -99.02056 | 7379 ft | 3 kts | 323° |
| 2026-05-09 04:35 | 19.73541 | -99.02073 | 7379 ft | 2 kts | 319° |
| 2026-05-09 04:35 | 19.73546 | -99.02078 | 7379 ft | 0 kts | 317° |
| 2026-05-09 04:35 | 19.73550 | -99.02082 | 7379 ft | 1 kts | 319° |
| 2026-05-09 04:35 | 19.73558 | -99.02089 | 7379 ft | 0 kts | 319° |